createdAt,value
2022-12-12T00:00:16.137Z,26.60
2022-12-12T00:02:44.197Z,29.77
2022-12-12T00:05:17.663Z,33.43
2022-12-12T00:07:45.839Z,30.50
2022-12-12T00:10:14.147Z,29.50
2022-12-12T00:12:42.752Z,33.33
2022-12-12T00:15:12.712Z,31.77
2022-12-12T00:17:40.888Z,26.37
2022-12-12T00:20:09.477Z,29.50
2022-12-12T00:22:37.476Z,29.13
2022-12-12T00:25:06.254Z,26.83
2022-12-12T00:27:35.227Z,31.57
2022-12-12T00:30:03.217Z,32.60
2022-12-12T00:32:33.302Z,28.43
2022-12-12T00:35:01.448Z,25.63
2022-12-12T00:37:29.553Z,30.03
2022-12-12T00:39:57.941Z,26.40
2022-12-12T00:42:27.387Z,25.97
2022-12-12T00:44:55.564Z,26.17
2022-12-12T00:47:23.825Z,28.20
2022-12-12T00:49:53.228Z,30.17
2022-12-12T00:52:21.257Z,28.03
2022-12-12T00:54:49.451Z,33.93
2022-12-12T00:57:17.492Z,30.40
2022-12-12T00:59:47.432Z,27.77
2022-12-12T01:02:15.506Z,23.93
2022-12-12T01:04:43.573Z,28.70
2022-12-12T01:07:12.883Z,28.57
2022-12-12T01:09:40.876Z,30.70
2022-12-12T01:12:09.358Z,32.93
2022-12-12T01:14:37.341Z,28.17
2022-12-12T01:17:05.324Z,25.53
2022-12-12T01:19:33.453Z,26.33
2022-12-12T01:22:01.428Z,32.17
2022-12-12T01:24:30.755Z,25.73
2022-12-12T01:26:58.798Z,24.73
2022-12-12T01:29:26.852Z,25.67
2022-12-12T01:31:55.013Z,26.53
2022-12-12T01:34:23.480Z,23.80
2022-12-12T01:36:51.744Z,28.03
2022-12-12T01:39:19.835Z,26.77
2022-12-12T01:41:49.574Z,30.17
2022-12-12T01:44:40.793Z,25.73
2022-12-12T01:47:09.693Z,24.67
2022-12-12T01:49:37.869Z,30.00
2022-12-12T01:52:11.606Z,26.93
2022-12-12T01:54:43.955Z,28.53
2022-12-12T01:57:17.109Z,27.83
2022-12-12T01:59:46.586Z,28.47
2022-12-12T02:02:14.851Z,28.33
2022-12-12T02:04:44.067Z,32.03
2022-12-12T02:07:14.944Z,26.93
2022-12-12T02:09:43.487Z,31.97
2022-12-12T02:12:15.250Z,26.47
2022-12-12T02:14:47.948Z,26.73
2022-12-12T02:17:47.847Z,29.73
2022-12-12T02:20:40.352Z,23.77
2022-12-12T02:23:39.613Z,30.43
2022-12-12T02:26:48.179Z,30.13
2022-12-12T02:30:04.982Z,31.57
2022-12-12T02:32:43.652Z,27.00
2022-12-12T02:35:20.386Z,25.13
2022-12-12T02:37:54.120Z,26.77
2022-12-12T02:40:27.199Z,26.67
2022-12-12T02:43:01.214Z,24.57
2022-12-12T02:45:38.559Z,26.83
2022-12-12T02:48:14.594Z,26.63
2022-12-12T02:50:45.762Z,27.23
2022-12-12T02:53:13.800Z,28.60
2022-12-12T02:55:42.095Z,25.63
2022-12-12T02:58:10.180Z,29.37
2022-12-12T03:00:47.129Z,28.67
2022-12-12T03:04:01.420Z,26.13
2022-12-12T03:07:01.360Z,27.27
2022-12-12T03:09:38.841Z,26.50
2022-12-12T03:12:10.979Z,22.13
2022-12-12T03:14:49.412Z,21.47
2022-12-12T03:17:26.762Z,26.63
2022-12-12T03:20:01.050Z,27.33
2022-12-12T03:22:35.886Z,26.07
2022-12-12T03:25:11.080Z,25.50
2022-12-12T03:27:44.027Z,26.53
2022-12-12T03:30:14.452Z,27.77
2022-12-12T03:32:46.696Z,28.23
2022-12-12T03:35:21.685Z,27.37
2022-12-12T03:37:52.505Z,28.30
2022-12-12T03:40:24.037Z,30.37
2022-12-12T03:42:59.195Z,28.00
2022-12-12T03:45:34.022Z,28.27
2022-12-12T03:48:08.275Z,29.67
2022-12-12T03:50:43.869Z,30.43
2022-12-12T03:53:16.583Z,20.90
2022-12-12T03:55:49.412Z,22.07
2022-12-12T03:58:22.102Z,25.27
2022-12-12T04:00:52.667Z,25.20
2022-12-12T04:03:27.473Z,28.33
2022-12-12T04:06:20.315Z,30.93
2022-12-12T04:09:03.024Z,26.47
2022-12-12T04:11:56.054Z,28.53
2022-12-12T04:14:41.971Z,26.97
2022-12-12T04:17:16.108Z,27.10
2022-12-12T04:20:10.218Z,25.87
2022-12-12T04:23:04.033Z,29.47
2022-12-12T04:25:57.475Z,28.70
2022-12-12T04:28:28.728Z,25.33
2022-12-12T04:31:00.078Z,32.23
2022-12-12T04:33:31.947Z,27.70
2022-12-12T04:36:03.318Z,26.47
2022-12-12T04:38:32.931Z,30.53
2022-12-12T04:41:02.395Z,23.93
2022-12-12T04:43:34.638Z,29.87
2022-12-12T04:46:05.869Z,35.07
2022-12-12T04:48:39.527Z,30.20
2022-12-12T04:51:10.240Z,27.80
2022-12-12T04:53:45.147Z,28.87
2022-12-12T04:56:16.946Z,29.30
2022-12-12T04:58:44.988Z,29.43
2022-12-12T05:01:18.784Z,19.87
2022-12-12T05:03:52.136Z,26.90
2022-12-12T05:06:26.767Z,27.73
2022-12-12T05:08:58.400Z,27.40
2022-12-12T05:11:26.906Z,29.60
2022-12-12T05:13:54.924Z,40.10
2022-12-12T05:16:26.777Z,27.60
2022-12-12T05:18:55.309Z,32.40
2022-12-12T05:21:23.413Z,28.27
2022-12-12T05:23:51.428Z,28.43
2022-12-12T05:26:24.355Z,24.50
2022-12-12T05:28:52.443Z,29.13
2022-12-12T05:31:20.763Z,28.37
2022-12-12T05:33:49.476Z,25.27
2022-12-12T05:36:17.566Z,24.70
2022-12-12T05:38:45.785Z,28.77
2022-12-12T05:41:13.843Z,29.63
2022-12-12T05:43:43.151Z,27.43
2022-12-12T05:46:11.352Z,27.03
2022-12-12T05:48:39.505Z,26.07
2022-12-12T05:51:07.842Z,22.40
2022-12-12T05:53:42.596Z,25.63
2022-12-12T05:56:12.927Z,29.53
2022-12-12T05:58:42.498Z,29.50
2022-12-12T06:01:11.242Z,30.20
2022-12-12T06:03:39.367Z,24.90
2022-12-12T06:06:07.702Z,26.23
2022-12-12T06:08:35.740Z,29.27
2022-12-12T06:11:06.514Z,23.27
2022-12-12T06:13:34.591Z,25.93
2022-12-12T06:16:08.550Z,26.03
2022-12-12T06:18:37.076Z,27.40
2022-12-12T06:21:06.976Z,23.87
2022-12-12T06:23:38.260Z,26.50
2022-12-12T06:26:06.892Z,16.70
2022-12-12T06:28:35.135Z,24.37
2022-12-12T06:31:06.880Z,24.43
2022-12-12T06:33:41.759Z,24.30
2022-12-12T06:36:12.931Z,26.93
2022-12-12T06:38:41.585Z,23.83
2022-12-12T06:41:10.973Z,25.93
2022-12-12T06:43:39.858Z,26.87
2022-12-12T06:46:11.197Z,26.83
2022-12-12T06:48:40.754Z,27.37
2022-12-12T06:51:10.100Z,24.90
2022-12-12T06:53:38.300Z,29.50
2022-12-12T06:56:10.762Z,27.50
2022-12-12T06:58:38.827Z,22.53
2022-12-12T07:01:07.265Z,29.73
2022-12-12T07:03:35.754Z,32.47
2022-12-12T07:06:05.690Z,31.33
2022-12-12T07:08:35.232Z,26.27
2022-12-12T07:11:05.073Z,24.00
2022-12-12T07:13:33.116Z,22.57
2022-12-12T07:16:01.379Z,27.50
2022-12-12T07:18:29.434Z,23.27
2022-12-12T07:20:57.354Z,25.40
2022-12-12T07:23:26.688Z,24.60
2022-12-12T07:25:54.775Z,25.60
2022-12-12T07:28:22.752Z,30.87
2022-12-12T07:30:50.863Z,26.40
2022-12-12T07:33:19.002Z,27.53
2022-12-12T07:35:47.050Z,25.80
2022-12-12T07:38:15.648Z,20.70
2022-12-12T07:40:45.031Z,24.90
2022-12-12T07:43:13.325Z,20.97
2022-12-12T07:45:45.424Z,19.47
2022-12-12T07:48:13.534Z,25.13
2022-12-12T07:50:42.360Z,26.73
2022-12-12T07:53:10.425Z,31.80
2022-12-12T07:55:40.478Z,31.73
2022-12-12T07:58:09.830Z,32.80
2022-12-12T08:00:37.882Z,45.17
2022-12-12T08:03:05.810Z,35.07
2022-12-12T08:05:33.751Z,40.83
2022-12-12T08:08:02.680Z,42.50
2022-12-12T08:10:30.803Z,39.13
2022-12-12T08:12:58.724Z,32.47
2022-12-12T08:15:28.216Z,26.70
2022-12-12T08:17:56.180Z,32.77
2022-12-12T08:20:24.172Z,29.30
2022-12-12T08:22:52.573Z,31.20
2022-12-12T08:25:20.843Z,22.90
2022-12-12T08:27:48.858Z,32.17
2022-12-12T08:30:17.431Z,29.30
2022-12-12T08:32:46.744Z,26.03
2022-12-12T08:35:14.815Z,26.07
2022-12-12T08:37:43.034Z,35.27
2022-12-12T08:40:12.107Z,36.03
2022-12-12T08:42:40.034Z,34.80
2022-12-12T08:45:08.929Z,31.67
2022-12-12T08:47:36.858Z,32.50
2022-12-12T08:50:07.756Z,36.57
2022-12-12T08:52:35.912Z,30.10
2022-12-12T08:55:03.947Z,31.87
2022-12-12T08:57:31.910Z,29.90
2022-12-12T08:59:59.960Z,29.77
2022-12-12T09:02:27.966Z,29.70
2022-12-12T09:04:56.043Z,27.90
2022-12-12T09:07:25.513Z,33.67
2022-12-12T09:09:53.461Z,26.40
2022-12-12T09:12:21.390Z,32.93
2022-12-12T09:14:49.612Z,29.07
2022-12-12T09:17:17.537Z,26.33
2022-12-12T09:19:46.310Z,30.77
2022-12-12T09:22:14.377Z,28.27
2022-12-12T09:24:43.684Z,30.97
2022-12-12T09:27:11.649Z,31.63
2022-12-12T09:29:40.178Z,28.07
2022-12-12T09:32:08.128Z,29.33
2022-12-12T09:34:37.480Z,27.23
2022-12-12T09:37:05.563Z,29.73
2022-12-12T09:39:33.565Z,31.20
2022-12-12T09:42:12.502Z,23.63
2022-12-12T09:44:40.979Z,23.57
2022-12-12T09:47:14.785Z,27.73
2022-12-12T09:49:48.523Z,28.57
2022-12-12T09:52:18.330Z,24.57
2022-12-12T09:54:46.519Z,34.43
2022-12-12T09:57:25.899Z,23.73
2022-12-12T10:00:02.101Z,30.90
2022-12-12T10:02:46.641Z,24.27
2022-12-12T10:05:26.257Z,26.87
2022-12-12T10:08:00.798Z,25.70
2022-12-12T10:10:33.352Z,26.90
2022-12-12T10:13:05.489Z,29.07
2022-12-12T10:15:37.765Z,26.67
2022-12-12T10:18:08.596Z,30.63
2022-12-12T10:20:44.369Z,29.00
2022-12-12T10:23:19.721Z,30.17
2022-12-12T10:25:53.011Z,25.20
2022-12-12T10:28:25.432Z,23.63
2022-12-12T10:31:10.689Z,22.67
2022-12-12T10:33:53.873Z,22.63
2022-12-12T10:36:33.039Z,29.03
2022-12-12T10:39:13.024Z,29.00
2022-12-12T10:41:46.830Z,29.87
2022-12-12T10:44:28.475Z,24.83
2022-12-12T10:47:02.239Z,28.17
2022-12-12T10:49:31.459Z,29.23
2022-12-12T10:52:03.131Z,25.47
2022-12-12T10:54:38.098Z,31.90
2022-12-12T10:57:19.859Z,28.87
2022-12-12T10:59:51.811Z,23.33
2022-12-12T11:02:39.146Z,25.37
2022-12-12T11:05:19.132Z,26.37
2022-12-12T11:07:49.966Z,25.17
2022-12-12T11:10:33.897Z,29.17
2022-12-12T11:13:06.326Z,27.63
2022-12-12T11:15:45.430Z,29.47
2022-12-12T11:18:16.501Z,24.17
2022-12-12T11:20:47.671Z,24.97
2022-12-12T11:23:20.817Z,28.20
2022-12-12T11:25:56.583Z,25.50
2022-12-12T11:28:27.374Z,23.83
2022-12-12T11:30:58.497Z,26.67
2022-12-12T11:33:34.456Z,23.80
2022-12-12T11:36:06.670Z,25.33
2022-12-12T11:38:40.152Z,29.20
2022-12-12T11:41:10.396Z,22.33
2022-12-12T11:43:39.403Z,23.33
2022-12-12T11:46:18.256Z,23.63
2022-12-12T11:48:59.237Z,22.53
2022-12-12T11:51:36.322Z,26.77
2022-12-12T11:54:08.300Z,27.53
2022-12-12T11:56:45.077Z,22.00
2022-12-12T11:59:40.548Z,22.43
2022-12-12T12:02:55.749Z,26.40
2022-12-12T12:05:32.075Z,23.83
2022-12-12T12:08:16.765Z,20.57
2022-12-12T12:10:54.598Z,20.87
2022-12-12T12:13:40.449Z,26.37
2022-12-12T12:16:24.348Z,20.73
2022-12-12T12:19:03.927Z,25.47
2022-12-12T12:21:42.488Z,26.53
2022-12-12T12:24:28.192Z,27.47
2022-12-12T12:27:04.401Z,22.87
2022-12-12T12:30:04.301Z,19.87
2022-12-12T12:32:45.324Z,21.70
2022-12-12T12:35:28.569Z,22.50
2022-12-12T12:38:10.528Z,21.37
2022-12-12T12:41:02.495Z,18.23
2022-12-12T12:43:45.014Z,19.80
2022-12-12T12:46:20.975Z,19.67
2022-12-12T12:48:54.604Z,20.33
2022-12-12T12:51:30.419Z,15.90
2022-12-12T12:54:03.464Z,20.70
2022-12-12T12:56:34.432Z,22.63
2022-12-12T12:59:06.114Z,17.63
2022-12-12T13:01:40.064Z,22.20
2022-12-12T13:04:15.828Z,20.00
2022-12-12T13:06:50.195Z,19.40
2022-12-12T13:09:31.019Z,21.43
2022-12-12T13:12:05.687Z,19.20
2022-12-12T13:14:41.976Z,21.77
2022-12-12T13:17:17.554Z,17.20
2022-12-12T13:19:48.912Z,22.83
2022-12-12T13:22:25.793Z,19.83
2022-12-12T13:25:00.680Z,18.13
2022-12-12T13:27:34.467Z,21.60
2022-12-12T13:30:06.132Z,22.37
2022-12-12T13:33:06.020Z,20.80
2022-12-12T13:35:37.845Z,20.33
2022-12-12T13:38:07.303Z,19.43
2022-12-12T13:40:42.419Z,19.43
2022-12-12T13:43:29.307Z,21.63
2022-12-12T13:45:57.571Z,25.50
2022-12-12T13:48:48.314Z,23.97
2022-12-12T13:51:36.374Z,20.20
2022-12-12T13:54:44.934Z,19.67
2022-12-12T13:57:16.002Z,18.17
2022-12-12T14:00:08.024Z,20.33
2022-12-12T14:02:38.162Z,21.53
2022-12-12T14:05:12.487Z,19.67
2022-12-12T14:07:48.597Z,18.73
2022-12-12T14:10:25.002Z,23.33
2022-12-12T14:12:53.872Z,21.03
2022-12-12T14:15:24.644Z,19.97
2022-12-12T14:17:55.991Z,21.53
2022-12-12T14:20:31.168Z,20.27
2022-12-12T14:23:23.315Z,18.90
2022-12-12T14:25:52.966Z,20.60
2022-12-12T14:28:26.820Z,18.43
2022-12-12T14:31:10.125Z,20.27
2022-12-12T14:34:14.109Z,18.10
2022-12-12T14:37:19.722Z,18.57
2022-12-12T14:39:59.718Z,18.17
2022-12-12T14:43:19.289Z,21.00
2022-12-12T14:45:35.875Z,19.77
2022-12-12T14:48:15.573Z,29.43
2022-12-12T14:50:48.789Z,19.80
2022-12-12T14:53:19.513Z,16.23
2022-12-12T14:55:49.449Z,21.70
2022-12-12T14:58:21.876Z,20.07
2022-12-12T15:00:52.359Z,27.57
2022-12-12T15:03:29.426Z,21.07
2022-12-12T15:06:37.563Z,18.33
2022-12-12T15:09:18.299Z,18.50
2022-12-12T15:11:47.932Z,19.73
2022-12-12T15:14:21.083Z,17.80
2022-12-12T15:16:53.475Z,20.17
2022-12-12T15:19:26.197Z,15.93
2022-12-12T15:21:54.735Z,16.70
2022-12-12T15:24:24.660Z,17.93
2022-12-12T15:26:55.974Z,19.13
2022-12-12T15:29:30.669Z,22.13
2022-12-12T15:32:02.228Z,20.17
2022-12-12T15:34:33.348Z,19.57
2022-12-12T15:37:22.529Z,24.10
2022-12-12T15:40:25.857Z,19.53
2022-12-12T15:42:56.600Z,16.20
2022-12-12T15:45:31.884Z,22.57
2022-12-12T15:48:00.973Z,15.53
2022-12-12T15:50:35.692Z,18.00
2022-12-12T15:53:08.370Z,16.17
2022-12-12T15:55:37.032Z,22.20
2022-12-12T15:58:05.429Z,18.13
2022-12-12T16:00:38.664Z,18.60
2022-12-12T16:03:21.772Z,16.80
2022-12-12T16:06:05.052Z,18.93
2022-12-12T16:08:46.759Z,24.17
2022-12-12T16:11:40.820Z,22.07
2022-12-12T16:14:26.013Z,17.90
2022-12-12T16:16:58.788Z,17.27
2022-12-12T16:19:39.283Z,18.90
2022-12-12T16:22:10.215Z,21.87
2022-12-12T16:24:48.876Z,17.60
2022-12-12T16:27:17.279Z,18.53
2022-12-12T16:29:45.623Z,22.30
2022-12-12T16:32:17.758Z,20.07
2022-12-12T16:34:45.974Z,18.03
2022-12-12T16:37:16.041Z,16.00
2022-12-12T16:39:44.563Z,19.60
2022-12-12T16:42:15.108Z,19.40
2022-12-12T16:44:43.081Z,19.63
2022-12-12T16:47:23.357Z,18.67
2022-12-12T16:49:52.198Z,30.07
2022-12-12T16:52:21.381Z,22.60
2022-12-12T16:54:53.814Z,27.80
2022-12-12T16:57:22.065Z,35.30
2022-12-12T16:59:50.041Z,32.30
2022-12-12T17:02:22.521Z,45.00
2022-12-12T17:04:51.545Z,24.20
2022-12-12T17:07:20.139Z,20.37
2022-12-12T17:09:48.195Z,25.60
2022-12-12T17:12:16.512Z,30.10
2022-12-12T17:14:44.591Z,23.93
2022-12-12T17:17:12.621Z,23.87
2022-12-12T17:19:42.303Z,18.30
2022-12-12T17:22:10.313Z,25.63
2022-12-12T17:24:38.355Z,20.83
2022-12-12T17:27:06.348Z,22.57
2022-12-12T17:29:34.328Z,23.90
2022-12-12T17:32:02.538Z,24.33
2022-12-12T17:34:30.520Z,24.57
2022-12-12T17:36:59.848Z,18.50
2022-12-12T17:39:27.865Z,22.87
2022-12-12T17:41:55.798Z,19.93
2022-12-12T17:44:24.313Z,19.20
2022-12-12T17:46:53.096Z,18.77
2022-12-12T17:49:21.091Z,16.90
2022-12-12T17:51:49.057Z,19.90
2022-12-12T17:54:18.477Z,20.10
2022-12-12T17:56:46.560Z,19.17
2022-12-12T17:59:14.501Z,22.17
2022-12-12T18:01:42.584Z,20.33
2022-12-12T18:04:10.890Z,17.57
2022-12-12T18:06:38.891Z,17.93
2022-12-12T18:09:07.032Z,24.17
2022-12-12T18:11:38.604Z,17.97
2022-12-12T18:14:08.618Z,19.43
2022-12-12T18:16:37.378Z,21.73
2022-12-12T18:19:05.451Z,26.23
2022-12-12T18:21:59.927Z,24.27
2022-12-12T18:24:24.901Z,18.03
2022-12-12T18:26:55.436Z,20.10
2022-12-12T18:29:23.754Z,23.87
2022-12-12T18:31:51.933Z,21.67
2022-12-12T18:34:20.842Z,17.30
2022-12-12T18:36:49.299Z,17.30
2022-12-12T18:39:17.804Z,17.57
2022-12-12T18:41:46.229Z,19.50
2022-12-12T18:44:16.314Z,21.03
2022-12-12T18:46:44.734Z,23.80
2022-12-12T18:49:16.050Z,26.17
2022-12-12T18:51:45.545Z,23.27
2022-12-12T18:54:16.259Z,19.27
2022-12-12T18:56:45.045Z,20.53
2022-12-12T18:59:13.451Z,24.10
2022-12-12T19:01:43.915Z,20.40
2022-12-12T19:04:17.531Z,27.33
2022-12-12T19:06:49.283Z,25.50
2022-12-12T19:09:19.182Z,22.47
2022-12-12T19:11:48.086Z,29.53
2022-12-12T19:14:17.166Z,30.67
2022-12-12T19:16:46.972Z,31.33
2022-12-12T19:19:15.593Z,30.50
2022-12-12T19:21:46.504Z,26.30
2022-12-12T19:24:14.926Z,28.47
2022-12-12T19:26:44.606Z,24.33
2022-12-12T19:29:14.568Z,31.80
2022-12-12T19:31:42.936Z,29.27
2022-12-12T19:34:14.658Z,32.10
2022-12-12T19:36:43.168Z,29.33
2022-12-12T19:39:12.638Z,31.63
2022-12-12T19:41:40.799Z,27.77
2022-12-12T19:44:12.557Z,22.90
2022-12-12T19:46:43.033Z,25.63
2022-12-12T19:49:15.449Z,23.70
2022-12-12T19:51:44.982Z,26.63
2022-12-12T19:54:15.608Z,28.40
2022-12-12T19:56:44.045Z,22.73
2022-12-12T19:59:13.665Z,27.83
2022-12-12T20:01:42.933Z,25.37
2022-12-12T20:04:17.470Z,26.60
2022-12-12T20:06:46.510Z,26.13
2022-12-12T20:09:16.032Z,24.83
2022-12-12T20:11:45.404Z,23.20
2022-12-12T20:14:15.251Z,28.90
2022-12-12T20:16:44.115Z,26.50
2022-12-12T20:19:14.547Z,25.77
2022-12-12T20:22:00.672Z,27.50
2022-12-12T20:24:31.174Z,24.83
2022-12-12T20:27:00.383Z,26.23
2022-12-12T20:29:28.833Z,23.63
2022-12-12T20:32:00.036Z,26.33
2022-12-12T20:34:30.820Z,23.00
2022-12-12T20:36:59.115Z,21.63
2022-12-12T20:39:27.988Z,27.43
2022-12-12T20:41:57.044Z,20.80
2022-12-12T20:44:26.018Z,27.20
2022-12-12T20:46:54.649Z,22.57
2022-12-12T20:49:24.796Z,24.10
2022-12-12T20:51:57.293Z,26.23
2022-12-12T20:54:27.247Z,23.40
2022-12-12T20:56:56.470Z,21.40
2022-12-12T20:59:25.275Z,25.40
2022-12-12T21:01:53.370Z,20.20
2022-12-12T21:04:21.968Z,22.57
2022-12-12T21:06:51.422Z,24.00
2022-12-12T21:09:26.412Z,22.73
2022-12-12T21:11:56.163Z,33.20
2022-12-12T21:14:24.451Z,22.87
2022-12-12T21:16:53.091Z,24.17
2022-12-12T21:19:23.124Z,24.70
2022-12-12T21:21:51.513Z,27.07
2022-12-12T21:24:23.018Z,21.33
2022-12-12T21:26:51.314Z,22.53
2022-12-12T21:29:19.495Z,22.40
2022-12-12T21:31:51.997Z,21.13
2022-12-12T21:34:21.951Z,24.97
2022-12-12T21:36:52.780Z,25.83
2022-12-12T21:39:23.158Z,18.97
2022-12-12T21:41:51.411Z,27.90
2022-12-12T21:44:20.317Z,25.13
2022-12-12T21:46:48.977Z,21.10
2022-12-12T21:49:31.043Z,26.40
2022-12-12T21:52:01.018Z,22.10
2022-12-12T21:54:30.976Z,22.80
2022-12-12T21:57:00.166Z,21.37
2022-12-12T21:59:28.926Z,20.60
2022-12-12T22:01:58.752Z,24.17
2022-12-12T22:04:27.570Z,21.73
2022-12-12T22:06:57.032Z,24.70
2022-12-12T22:09:26.474Z,22.93
2022-12-12T22:12:04.358Z,19.07
2022-12-12T22:14:33.878Z,24.73
2022-12-12T22:17:02.167Z,23.63
2022-12-12T22:19:30.132Z,21.87
2022-12-12T22:21:58.226Z,21.57
2022-12-12T22:24:26.356Z,18.17
2022-12-12T22:26:56.003Z,23.70
2022-12-12T22:29:24.134Z,25.37
2022-12-12T22:31:52.463Z,27.97
2022-12-12T22:34:23.200Z,22.53
2022-12-12T22:36:52.886Z,25.50
2022-12-12T22:39:23.240Z,28.47
2022-12-12T22:41:51.601Z,26.40
2022-12-12T22:44:23.435Z,28.93
2022-12-12T22:46:53.247Z,28.47
2022-12-12T22:49:25.789Z,22.93
2022-12-12T22:51:54.775Z,21.80
2022-12-12T22:54:23.059Z,23.93
2022-12-12T22:56:51.386Z,26.27
2022-12-12T22:59:20.764Z,23.43
2022-12-12T23:01:48.776Z,20.87
2022-12-12T23:04:17.125Z,24.93
2022-12-12T23:06:46.350Z,21.80
2022-12-12T23:09:16.505Z,22.53
2022-12-12T23:11:45.580Z,27.43
2022-12-12T23:14:16.373Z,22.17
2022-12-12T23:16:47.555Z,28.63
2022-12-12T23:19:18.755Z,21.10
2022-12-12T23:21:47.571Z,23.43
2022-12-12T23:24:16.374Z,29.27
2022-12-12T23:26:44.992Z,22.70
2022-12-12T23:29:16.886Z,26.43
2022-12-12T23:31:46.377Z,24.20
2022-12-12T23:34:20.675Z,24.47
2022-12-12T23:36:49.094Z,26.83
2022-12-12T23:39:17.759Z,18.73
2022-12-12T23:41:45.863Z,28.43
2022-12-12T23:44:14.845Z,27.90
2022-12-12T23:46:43.564Z,23.23
2022-12-12T23:49:16.857Z,24.73
2022-12-12T23:51:46.279Z,23.93
2022-12-12T23:54:16.575Z,22.23
2022-12-12T23:56:44.832Z,23.27
2022-12-12T23:59:17.347Z,23.57
